createdAt,value
2023-01-26T00:01:16.547Z,0.70
2023-01-26T00:03:43.684Z,0.70
2023-01-26T00:06:12.787Z,0.80
2023-01-26T00:08:41.339Z,0.80
2023-01-26T00:11:09.651Z,0.90
2023-01-26T00:13:36.590Z,1.00
2023-01-26T00:16:04.032Z,1.10
2023-01-26T00:18:31.513Z,1.00
2023-01-26T00:21:00.153Z,3.10
2023-01-26T00:23:28.629Z,1.00
2023-01-26T00:25:55.500Z,1.20
2023-01-26T00:28:22.375Z,1.40
2023-01-26T00:30:49.043Z,1.40
2023-01-26T00:33:15.795Z,1.00
2023-01-26T00:35:45.313Z,1.00
2023-01-26T00:38:12.538Z,1.10
2023-01-26T00:40:40.174Z,1.20
2023-01-26T00:43:07.441Z,1.30
2023-01-26T00:45:34.931Z,1.30
2023-01-26T00:48:01.648Z,1.30
2023-01-26T00:50:28.253Z,1.40
2023-01-26T00:52:55.005Z,1.40
2023-01-26T00:55:21.640Z,1.60
2023-01-26T00:57:49.514Z,1.60
2023-01-26T01:00:17.766Z,1.70
2023-01-26T01:02:44.612Z,1.60
2023-01-26T01:05:12.225Z,1.50
2023-01-26T01:07:38.831Z,1.60
2023-01-26T01:10:05.637Z,1.60
2023-01-26T01:12:32.251Z,1.50
2023-01-26T01:14:58.876Z,1.60
2023-01-26T01:17:25.781Z,1.50
2023-01-26T01:19:52.385Z,1.60
2023-01-26T01:22:19.052Z,1.50
2023-01-26T01:24:45.631Z,1.50
2023-01-26T01:27:12.310Z,1.50
2023-01-26T01:29:39.140Z,1.60
2023-01-26T01:32:05.919Z,1.70
2023-01-26T01:34:32.575Z,1.60
2023-01-26T01:36:59.159Z,1.60
2023-01-26T01:39:25.794Z,1.40
2023-01-26T01:41:52.369Z,1.30
2023-01-26T01:44:24.063Z,1.20
2023-01-26T01:46:53.734Z,1.20
2023-01-26T01:49:46.774Z,1.20
2023-01-26T01:52:18.112Z,1.30
2023-01-26T01:55:07.502Z,1.40
2023-01-26T01:57:51.747Z,1.20
2023-01-26T02:00:22.163Z,1.20
2023-01-26T02:03:11.853Z,1.10
2023-01-26T02:06:03.379Z,1.20
2023-01-26T02:08:38.442Z,1.30
2023-01-26T02:11:10.299Z,1.40
2023-01-26T02:13:37.541Z,1.20
2023-01-26T02:16:04.565Z,1.00
2023-01-26T02:18:31.331Z,1.00
2023-01-26T02:21:11.904Z,1.00
2023-01-26T02:24:15.663Z,1.00
2023-01-26T02:26:42.603Z,1.20
2023-01-26T02:29:11.432Z,1.20
2023-01-26T02:31:39.351Z,1.30
2023-01-26T02:34:06.185Z,1.30
2023-01-26T02:36:34.503Z,1.30
2023-01-26T02:39:17.980Z,1.50
2023-01-26T02:42:04.589Z,1.20
2023-01-26T02:44:32.283Z,1.10
2023-01-26T02:46:59.195Z,1.00
2023-01-26T02:49:44.287Z,1.10
2023-01-26T02:52:10.906Z,1.00
2023-01-26T02:54:56.116Z,1.00
2023-01-26T02:57:22.779Z,1.10
2023-01-26T02:59:49.597Z,1.10
2023-01-26T03:02:16.356Z,1.10
2023-01-26T03:04:43.934Z,1.00
2023-01-26T03:07:10.698Z,1.10
2023-01-26T03:09:37.442Z,1.10
2023-01-26T03:12:04.674Z,1.20
2023-01-26T03:14:31.313Z,1.10
2023-01-26T03:16:57.949Z,1.20
2023-01-26T03:19:43.481Z,1.20
2023-01-26T03:22:29.749Z,1.30
2023-01-26T03:25:15.090Z,1.40
2023-01-26T03:27:47.001Z,1.50
2023-01-26T03:30:16.801Z,1.50
2023-01-26T03:32:43.822Z,1.50
2023-01-26T03:35:15.148Z,1.50
2023-01-26T03:37:43.606Z,1.50
2023-01-26T03:40:30.955Z,1.50
2023-01-26T03:43:16.321Z,1.60
2023-01-26T03:46:01.650Z,1.60
2023-01-26T03:48:47.092Z,1.60
2023-01-26T03:51:32.494Z,1.60
2023-01-26T03:54:18.057Z,1.60
2023-01-26T03:56:44.727Z,1.30
2023-01-26T03:59:15.032Z,1.20
2023-01-26T04:02:02.982Z,1.30
2023-01-26T04:04:48.127Z,1.40
2023-01-26T04:07:33.632Z,1.40
2023-01-26T04:10:00.283Z,1.40
2023-01-26T04:12:27.056Z,1.50
2023-01-26T04:15:12.368Z,1.40
2023-01-26T04:17:57.854Z,0.70
2023-01-26T04:20:43.132Z,1.40
2023-01-26T04:23:20.342Z,1.30
2023-01-26T04:25:48.271Z,1.30
2023-01-26T04:28:14.885Z,1.50
2023-01-26T04:30:41.604Z,1.60
2023-01-26T04:33:08.216Z,1.60
2023-01-26T04:35:34.825Z,1.60
2023-01-26T04:38:01.417Z,1.70
2023-01-26T04:40:28.008Z,1.60
2023-01-26T04:42:54.612Z,1.40
2023-01-26T04:45:21.246Z,3.10
2023-01-26T04:47:47.883Z,1.60
2023-01-26T04:50:14.810Z,1.70
2023-01-26T04:52:41.480Z,1.80
2023-01-26T04:55:08.499Z,1.70
2023-01-26T04:57:35.109Z,1.60
2023-01-26T05:00:01.750Z,1.60
2023-01-26T05:02:28.351Z,1.80
2023-01-26T05:04:54.949Z,1.80
2023-01-26T05:07:21.520Z,1.80
2023-01-26T05:09:48.310Z,1.80
2023-01-26T05:12:33.438Z,1.80
2023-01-26T05:15:00.097Z,1.70
2023-01-26T05:17:26.824Z,1.70
2023-01-26T05:19:53.394Z,1.60
2023-01-26T05:22:19.989Z,1.70
2023-01-26T05:24:46.587Z,1.80
2023-01-26T05:27:22.505Z,1.80
2023-01-26T05:29:52.367Z,1.90
2023-01-26T05:32:19.473Z,1.80
2023-01-26T05:34:46.255Z,1.80
2023-01-26T05:37:14.765Z,1.70
2023-01-26T05:39:42.218Z,1.60
2023-01-26T05:42:09.042Z,1.70
2023-01-26T05:44:35.629Z,1.60
2023-01-26T05:47:02.260Z,1.60
2023-01-26T05:49:29.321Z,1.80
2023-01-26T05:51:56.048Z,1.60
2023-01-26T05:54:22.777Z,1.70
2023-01-26T05:56:49.354Z,1.70
2023-01-26T05:59:16.255Z,1.80
2023-01-26T06:01:42.879Z,1.70
2023-01-26T06:04:09.616Z,1.70
2023-01-26T06:06:36.273Z,1.60
2023-01-26T06:09:03.011Z,1.60
2023-01-26T06:11:31.206Z,1.60
2023-01-26T06:13:57.771Z,1.70
2023-01-26T06:16:24.399Z,1.80
2023-01-26T06:18:51.031Z,1.90
2023-01-26T06:21:17.684Z,1.90
2023-01-26T06:23:44.735Z,2.00
2023-01-26T06:26:11.367Z,2.10
2023-01-26T06:28:38.059Z,2.10
2023-01-26T06:31:06.433Z,2.00
2023-01-26T06:33:35.643Z,1.90
2023-01-26T06:36:07.845Z,1.90
2023-01-26T06:38:34.439Z,1.90
2023-01-26T06:41:04.871Z,2.00
2023-01-26T06:43:32.420Z,2.10
2023-01-26T06:45:59.308Z,1.90
2023-01-26T06:48:27.291Z,2.00
2023-01-26T06:50:57.163Z,1.90
2023-01-26T06:53:34.380Z,2.50
2023-01-26T06:56:01.272Z,3.20
2023-01-26T06:58:27.950Z,4.60
2023-01-26T07:00:55.625Z,4.80
2023-01-26T07:03:22.261Z,4.80
2023-01-26T07:05:48.803Z,4.00
2023-01-26T07:08:15.420Z,3.20
2023-01-26T07:10:42.005Z,2.70
2023-01-26T07:13:08.702Z,2.30
2023-01-26T07:15:35.485Z,2.30
2023-01-26T07:18:02.155Z,2.20
2023-01-26T07:20:28.805Z,2.30
2023-01-26T07:22:55.450Z,2.10
2023-01-26T07:25:22.048Z,2.20
2023-01-26T07:27:48.630Z,2.20
2023-01-26T07:30:15.824Z,2.10
2023-01-26T07:32:42.463Z,1.90
2023-01-26T07:35:09.376Z,2.20
2023-01-26T07:37:35.995Z,2.10
2023-01-26T07:40:03.642Z,2.20
2023-01-26T07:42:31.062Z,2.10
2023-01-26T07:44:57.808Z,2.10
2023-01-26T07:47:24.628Z,2.20
2023-01-26T07:49:51.545Z,2.20
2023-01-26T07:52:18.171Z,2.10
2023-01-26T07:54:44.928Z,2.10
2023-01-26T07:57:12.746Z,2.10
2023-01-26T07:59:39.312Z,2.30
2023-01-26T08:02:06.299Z,2.10
2023-01-26T08:04:32.929Z,2.00
2023-01-26T08:06:59.621Z,2.30
2023-01-26T08:09:26.535Z,2.00
2023-01-26T08:11:53.188Z,2.00
2023-01-26T08:14:19.810Z,2.20
2023-01-26T08:16:46.591Z,2.10
2023-01-26T08:19:13.326Z,2.20
2023-01-26T08:21:39.960Z,2.20
2023-01-26T08:24:06.889Z,2.10
2023-01-26T08:26:33.529Z,2.20
2023-01-26T08:29:00.299Z,2.20
2023-01-26T08:31:28.164Z,2.00
2023-01-26T08:33:55.726Z,2.00
2023-01-26T08:36:23.300Z,2.00
2023-01-26T08:38:50.986Z,2.10
2023-01-26T08:41:18.668Z,2.00
2023-01-26T08:43:45.398Z,2.20
2023-01-26T08:46:12.167Z,2.30
2023-01-26T08:48:39.143Z,2.20
2023-01-26T08:51:07.210Z,2.30
2023-01-26T08:53:36.037Z,2.20
2023-01-26T08:56:05.135Z,2.20
2023-01-26T08:58:33.649Z,2.20
2023-01-26T09:01:04.576Z,2.30
2023-01-26T09:03:31.285Z,2.20
2023-01-26T09:06:00.656Z,2.20
2023-01-26T09:08:27.999Z,2.30
2023-01-26T09:10:54.608Z,2.40
2023-01-26T09:13:21.212Z,2.50
2023-01-26T09:15:47.869Z,2.40
2023-01-26T09:18:14.519Z,2.40
2023-01-26T09:20:41.175Z,2.40
2023-01-26T09:23:08.447Z,2.40
2023-01-26T09:25:39.347Z,2.40
2023-01-26T09:28:06.494Z,2.40
2023-01-26T09:30:33.533Z,2.50
2023-01-26T09:33:01.916Z,2.40
2023-01-26T09:35:29.155Z,1.00
2023-01-26T09:37:56.212Z,2.30
2023-01-26T09:40:44.089Z,2.20
2023-01-26T09:43:36.400Z,2.10
2023-01-26T09:46:15.011Z,2.10
2023-01-26T09:48:59.709Z,2.20
2023-01-26T09:51:37.368Z,2.30
2023-01-26T09:54:06.747Z,2.30
2023-01-26T09:56:33.980Z,2.40
2023-01-26T09:59:27.034Z,2.40
2023-01-26T10:01:56.728Z,2.40
2023-01-26T10:04:32.646Z,2.40
2023-01-26T10:07:01.764Z,2.50
2023-01-26T10:09:35.129Z,2.40
2023-01-26T10:12:07.546Z,2.30
2023-01-26T10:14:46.167Z,2.30
2023-01-26T10:17:39.843Z,2.30
2023-01-26T10:20:43.610Z,2.40
2023-01-26T10:23:17.489Z,2.50
2023-01-26T10:25:48.193Z,2.60
2023-01-26T10:28:16.064Z,2.70
2023-01-26T10:30:44.922Z,2.70
2023-01-26T10:33:27.766Z,2.70
2023-01-26T10:35:54.720Z,2.60
2023-01-26T10:38:33.043Z,2.80
2023-01-26T10:41:05.746Z,2.80
2023-01-26T10:43:36.892Z,2.90
2023-01-26T10:46:04.683Z,2.90
2023-01-26T10:48:31.695Z,2.90
2023-01-26T10:51:16.475Z,3.00
2023-01-26T10:53:43.098Z,2.90
2023-01-26T10:56:14.823Z,2.90
2023-01-26T10:58:55.095Z,2.90
2023-01-26T11:01:23.179Z,2.90
2023-01-26T11:04:06.994Z,2.90
2023-01-26T11:06:34.410Z,2.80
2023-01-26T11:09:27.586Z,2.80
2023-01-26T11:11:56.631Z,2.80
2023-01-26T11:14:23.731Z,2.80
2023-01-26T11:17:22.672Z,2.90
2023-01-26T11:20:07.111Z,2.90
2023-01-26T11:22:50.307Z,2.90
2023-01-26T11:25:27.893Z,3.00
2023-01-26T11:28:22.370Z,2.90
2023-01-26T11:31:04.026Z,3.00
2023-01-26T11:33:43.922Z,2.90
2023-01-26T11:36:17.079Z,3.00
2023-01-26T11:39:02.230Z,3.10
2023-01-26T11:41:34.440Z,3.10
2023-01-26T11:44:25.334Z,3.10
2023-01-26T11:47:10.972Z,3.20
2023-01-26T11:49:46.433Z,3.20
2023-01-26T11:52:35.797Z,3.10
2023-01-26T11:55:28.599Z,3.10
2023-01-26T11:58:15.145Z,3.20
2023-01-26T12:00:47.435Z,3.30
2023-01-26T12:03:33.017Z,3.30
2023-01-26T12:06:05.388Z,3.30
2023-01-26T12:08:42.074Z,3.20
2023-01-26T12:11:25.287Z,3.20
2023-01-26T12:14:01.020Z,3.40
2023-01-26T12:16:39.976Z,3.50
2023-01-26T12:19:45.512Z,3.40
2023-01-26T12:22:32.121Z,3.40
2023-01-26T12:25:28.083Z,3.30
2023-01-26T12:28:01.237Z,3.30
2023-01-26T12:30:50.479Z,3.40
2023-01-26T12:33:17.239Z,3.50
2023-01-26T12:36:05.394Z,3.40
2023-01-26T12:38:50.180Z,3.40
2023-01-26T12:41:44.050Z,3.40
2023-01-26T12:44:36.555Z,3.50
2023-01-26T12:47:09.880Z,3.50
2023-01-26T12:49:47.206Z,3.50
2023-01-26T12:52:21.685Z,3.60
2023-01-26T12:55:04.636Z,3.50
2023-01-26T12:57:44.024Z,3.60
2023-01-26T13:00:20.266Z,3.60
2023-01-26T13:02:51.766Z,3.60
2023-01-26T13:05:34.082Z,3.50
2023-01-26T13:08:36.727Z,3.50
2023-01-26T13:11:09.133Z,5.70
2023-01-26T13:13:56.899Z,3.60
2023-01-26T13:16:23.647Z,3.60
2023-01-26T13:18:55.281Z,3.70
2023-01-26T13:21:40.068Z,3.60
2023-01-26T13:24:18.798Z,3.70
2023-01-26T13:26:50.896Z,3.60
2023-01-26T13:29:31.877Z,3.60
2023-01-26T13:32:14.036Z,3.60
2023-01-26T13:34:47.474Z,3.90
2023-01-26T13:37:23.734Z,3.70
2023-01-26T13:39:56.974Z,3.60
2023-01-26T13:42:35.174Z,3.60
2023-01-26T13:45:30.757Z,3.50
2023-01-26T13:48:00.456Z,3.50
2023-01-26T13:50:31.303Z,3.50
2023-01-26T13:52:58.428Z,3.50
2023-01-26T13:55:29.535Z,3.60
2023-01-26T13:58:25.446Z,3.70
2023-01-26T14:01:02.268Z,3.60
2023-01-26T14:03:30.992Z,5.10
2023-01-26T14:06:01.120Z,3.60
2023-01-26T14:08:28.990Z,3.60
2023-01-26T14:10:55.875Z,3.80
2023-01-26T14:13:38.824Z,3.70
2023-01-26T14:16:07.221Z,3.70
2023-01-26T14:18:33.999Z,3.60
2023-01-26T14:21:01.928Z,3.70
2023-01-26T14:23:32.801Z,3.90
2023-01-26T14:26:17.183Z,4.00
2023-01-26T14:28:44.221Z,4.00
2023-01-26T14:31:18.075Z,3.90
2023-01-26T14:33:44.977Z,3.90
2023-01-26T14:36:17.152Z,3.90
2023-01-26T14:38:46.187Z,4.00
2023-01-26T14:41:29.165Z,3.90
2023-01-26T14:43:59.907Z,4.00
2023-01-26T14:46:44.398Z,2.20
2023-01-26T14:49:20.787Z,4.00
2023-01-26T14:51:53.539Z,4.10
2023-01-26T14:54:30.699Z,5.20
2023-01-26T14:56:58.750Z,4.30
2023-01-26T14:59:43.823Z,4.10
2023-01-26T15:02:25.533Z,4.10
2023-01-26T15:04:52.180Z,4.00
2023-01-26T15:07:38.779Z,4.00
2023-01-26T15:10:28.361Z,4.10
2023-01-26T15:13:11.236Z,4.10
2023-01-26T15:15:43.815Z,3.10
2023-01-26T15:18:13.415Z,4.10
2023-01-26T15:20:41.456Z,4.20
2023-01-26T15:23:32.036Z,4.30
2023-01-26T15:26:12.539Z,4.30
2023-01-26T15:28:39.277Z,4.20
2023-01-26T15:31:06.950Z,4.40
2023-01-26T15:33:53.397Z,4.10
2023-01-26T15:36:28.659Z,4.20
2023-01-26T15:39:03.497Z,4.20
2023-01-26T15:41:30.745Z,4.30
2023-01-26T15:43:57.638Z,4.40
2023-01-26T15:46:24.302Z,5.00
2023-01-26T15:48:50.952Z,5.40
2023-01-26T15:51:17.637Z,5.50
2023-01-26T15:53:44.283Z,6.10
2023-01-26T15:56:15.571Z,6.20
2023-01-26T15:58:43.184Z,6.10
2023-01-26T16:01:21.380Z,6.20
2023-01-26T16:03:48.412Z,5.70
2023-01-26T16:06:23.943Z,5.40
2023-01-26T16:08:50.806Z,5.30
2023-01-26T16:11:18.153Z,5.10
2023-01-26T16:13:54.030Z,4.90
2023-01-26T16:16:29.546Z,4.90
2023-01-26T16:18:57.365Z,4.80
2023-01-26T16:21:29.556Z,4.90
2023-01-26T16:23:56.269Z,4.80
2023-01-26T16:26:22.954Z,4.80
2023-01-26T16:28:49.639Z,4.60
2023-01-26T16:31:25.861Z,4.60
2023-01-26T16:33:52.794Z,4.60
2023-01-26T16:36:20.606Z,4.70
2023-01-26T16:38:48.007Z,4.60
2023-01-26T16:41:19.324Z,4.70
2023-01-26T16:43:45.938Z,4.70
2023-01-26T16:46:12.625Z,4.70
2023-01-26T16:48:40.470Z,4.70
2023-01-26T16:51:20.083Z,4.50
2023-01-26T16:53:47.495Z,4.50
2023-01-26T16:56:15.846Z,4.50
2023-01-26T16:58:42.673Z,4.60
2023-01-26T17:01:30.127Z,4.60
2023-01-26T17:03:56.729Z,4.50
2023-01-26T17:06:23.570Z,4.60
2023-01-26T17:08:50.251Z,4.70
2023-01-26T17:11:19.383Z,4.70
2023-01-26T17:13:46.755Z,4.80
2023-01-26T17:16:16.437Z,4.90
2023-01-26T17:18:45.388Z,4.90
2023-01-26T17:21:13.267Z,4.80
2023-01-26T17:23:44.168Z,5.00
2023-01-26T17:26:15.136Z,4.90
2023-01-26T17:28:41.867Z,4.90
2023-01-26T17:31:17.376Z,5.00
2023-01-26T17:33:45.509Z,4.90
2023-01-26T17:36:12.257Z,7.00
2023-01-26T17:38:39.302Z,4.90
2023-01-26T17:41:06.226Z,4.90
2023-01-26T17:43:33.465Z,5.00
2023-01-26T17:46:04.166Z,5.00
2023-01-26T17:48:30.954Z,5.10
2023-01-26T17:50:57.557Z,5.20
2023-01-26T17:53:24.406Z,5.00
2023-01-26T17:55:52.154Z,5.10
2023-01-26T17:58:18.785Z,5.20
2023-01-26T18:00:45.618Z,5.20
2023-01-26T18:03:12.335Z,5.20
2023-01-26T18:05:38.932Z,5.40
2023-01-26T18:08:05.753Z,5.50
2023-01-26T18:10:32.461Z,5.40
2023-01-26T18:12:59.129Z,5.40
2023-01-26T18:15:25.790Z,5.40
2023-01-26T18:17:52.457Z,5.40
2023-01-26T18:20:19.078Z,5.40
2023-01-26T18:22:46.208Z,5.40
2023-01-26T18:25:13.148Z,5.40
2023-01-26T18:27:39.925Z,5.50
2023-01-26T18:30:07.316Z,5.30
2023-01-26T18:32:34.023Z,5.30
2023-01-26T18:35:00.597Z,5.20
2023-01-26T18:37:28.236Z,5.10
2023-01-26T18:39:54.817Z,5.10
2023-01-26T18:42:21.420Z,5.10
2023-01-26T18:44:48.359Z,5.20
2023-01-26T18:47:14.952Z,5.30
2023-01-26T18:49:41.554Z,5.30
2023-01-26T18:52:08.246Z,5.40
2023-01-26T18:54:34.956Z,5.40
2023-01-26T18:57:01.538Z,5.40
2023-01-26T18:59:28.247Z,5.40
2023-01-26T19:01:55.421Z,5.40
2023-01-26T19:04:22.442Z,5.30
2023-01-26T19:06:49.083Z,4.40
2023-01-26T19:09:15.808Z,5.10
2023-01-26T19:11:42.485Z,5.10
2023-01-26T19:14:09.347Z,5.20
2023-01-26T19:16:36.550Z,5.30
2023-01-26T19:19:03.507Z,5.10
2023-01-26T19:21:31.844Z,5.20
2023-01-26T19:24:02.459Z,5.30
2023-01-26T19:26:30.583Z,5.40
2023-01-26T19:28:57.696Z,5.60
2023-01-26T19:31:26.372Z,5.70
2023-01-26T19:33:58.284Z,5.60
2023-01-26T19:36:26.543Z,5.40
2023-01-26T19:38:53.195Z,5.30
2023-01-26T19:41:21.059Z,5.40
2023-01-26T19:43:50.298Z,5.50
2023-01-26T19:46:18.066Z,5.50
2023-01-26T19:48:45.768Z,5.50
2023-01-26T19:51:14.928Z,5.50
2023-01-26T19:53:44.916Z,5.60
2023-01-26T19:56:14.290Z,5.40
2023-01-26T19:58:40.920Z,6.90
2023-01-26T20:01:13.029Z,5.10
2023-01-26T20:03:40.365Z,5.20
2023-01-26T20:06:14.921Z,5.20
2023-01-26T20:08:41.638Z,5.20
2023-01-26T20:11:09.880Z,5.20
2023-01-26T20:13:38.373Z,5.20
2023-01-26T20:16:08.827Z,5.30
2023-01-26T20:18:36.719Z,5.40
2023-01-26T20:21:06.589Z,5.40
2023-01-26T20:23:35.244Z,5.30
2023-01-26T20:26:04.102Z,5.30
2023-01-26T20:28:30.991Z,5.30
2023-01-26T20:31:15.605Z,5.30
2023-01-26T20:33:43.882Z,5.40
2023-01-26T20:36:16.716Z,5.40
2023-01-26T20:38:43.737Z,5.30
2023-01-26T20:41:13.228Z,5.30
2023-01-26T20:43:49.411Z,5.60
2023-01-26T20:46:20.056Z,5.50
2023-01-26T20:48:46.883Z,5.60
2023-01-26T20:51:16.246Z,5.60
2023-01-26T20:53:43.590Z,5.50
2023-01-26T20:56:11.797Z,5.50
2023-01-26T20:58:40.070Z,5.50
2023-01-26T21:01:09.643Z,5.50
2023-01-26T21:03:37.357Z,5.50
2023-01-26T21:06:05.220Z,5.50
2023-01-26T21:08:32.297Z,5.30
2023-01-26T21:11:00.658Z,5.40
2023-01-26T21:13:28.008Z,5.40
2023-01-26T21:15:55.482Z,5.40
2023-01-26T21:18:22.267Z,5.40
2023-01-26T21:20:57.215Z,5.50
2023-01-26T21:23:24.523Z,5.60
2023-01-26T21:25:58.537Z,5.60
2023-01-26T21:28:26.209Z,5.50
2023-01-26T21:31:04.952Z,5.60
2023-01-26T21:33:32.826Z,5.70
2023-01-26T21:36:01.417Z,5.70
2023-01-26T21:38:31.320Z,5.60
2023-01-26T21:41:02.571Z,5.70
2023-01-26T21:43:30.117Z,5.70
2023-01-26T21:45:58.152Z,5.70
2023-01-26T21:48:31.532Z,5.80
2023-01-26T21:51:17.727Z,5.70
2023-01-26T21:53:44.717Z,5.80
2023-01-26T21:56:14.655Z,5.90
2023-01-26T21:58:59.904Z,6.00
2023-01-26T22:01:27.340Z,4.40
2023-01-26T22:03:58.778Z,6.10
2023-01-26T22:06:26.267Z,6.00
2023-01-26T22:08:54.238Z,6.10
2023-01-26T22:11:21.510Z,6.00
2023-01-26T22:13:48.268Z,6.10
2023-01-26T22:16:15.631Z,6.10
2023-01-26T22:18:42.550Z,6.10
2023-01-26T22:21:09.332Z,6.10
2023-01-26T22:23:37.696Z,6.00
2023-01-26T22:26:09.959Z,6.00
2023-01-26T22:28:36.714Z,6.00
2023-01-26T22:31:06.915Z,6.00
2023-01-26T22:33:34.947Z,6.00
2023-01-26T22:36:06.014Z,6.10
2023-01-26T22:38:34.003Z,6.00
2023-01-26T22:41:01.845Z,7.70
2023-01-26T22:43:28.730Z,6.00
2023-01-26T22:45:55.456Z,6.10
2023-01-26T22:48:22.157Z,6.20
2023-01-26T22:50:48.778Z,6.20
2023-01-26T22:53:15.529Z,6.20
2023-01-26T22:55:43.169Z,6.10
2023-01-26T22:58:11.107Z,6.00
2023-01-26T23:00:38.367Z,6.00
2023-01-26T23:03:05.659Z,6.10
2023-01-26T23:05:33.846Z,6.00
2023-01-26T23:08:01.115Z,6.00
2023-01-26T23:10:28.151Z,6.00
2023-01-26T23:12:54.905Z,6.00
2023-01-26T23:15:22.148Z,5.90
2023-01-26T23:17:50.477Z,6.10
2023-01-26T23:20:21.761Z,6.00
2023-01-26T23:22:48.453Z,6.20
2023-01-26T23:25:34.072Z,6.20
2023-01-26T23:28:04.207Z,6.20
2023-01-26T23:30:30.899Z,6.00
2023-01-26T23:32:57.604Z,6.00
2023-01-26T23:35:26.456Z,6.10
2023-01-26T23:37:53.318Z,6.10
2023-01-26T23:40:20.111Z,6.10
2023-01-26T23:43:03.514Z,6.00
2023-01-26T23:45:34.020Z,5.90
2023-01-26T23:48:00.678Z,5.90
2023-01-26T23:50:27.918Z,5.90
2023-01-26T23:52:54.534Z,5.90
2023-01-26T23:55:21.525Z,6.00
2023-01-26T23:57:48.215Z,6.10
